createdAt,value
2023-04-24T00:00:47.859Z,0.7
2023-04-24T00:01:57.637Z,0.7
2023-04-24T00:03:06.330Z,0.7
2023-04-24T00:04:15.192Z,0.6
2023-04-24T00:05:24.611Z,0.7
2023-04-24T00:06:33.456Z,0.8
2023-04-24T00:07:43.095Z,0.8
2023-04-24T00:08:52.748Z,0.8
2023-04-24T00:10:01.427Z,0.9
2023-04-24T00:11:11.101Z,0.9
2023-04-24T00:12:20.843Z,1
2023-04-24T00:13:28.547Z,0.8
2023-04-24T00:14:38.232Z,1
2023-04-24T00:15:47.928Z,0.9
2023-04-24T00:16:56.805Z,0.7
2023-04-24T00:18:06.470Z,0.9
2023-04-24T00:19:14.085Z,1.1
2023-04-24T00:20:23.811Z,0.6
2023-04-24T00:21:33.506Z,0.7
2023-04-24T00:22:42.217Z,0.9
2023-04-24T00:23:51.890Z,0.9
2023-04-24T00:25:00.556Z,0.8
2023-04-24T00:26:09.225Z,1.1
2023-04-24T00:27:18.897Z,1
2023-04-24T00:28:28.569Z,1.2
2023-04-24T00:29:38.237Z,1
2023-04-24T00:30:47.894Z,1.4
2023-04-24T00:31:57.622Z,1.1
2023-04-24T00:33:07.330Z,1.3
2023-04-24T00:34:14.957Z,1.5
2023-04-24T00:35:23.602Z,1.4
2023-04-24T00:36:33.399Z,1.1
2023-04-24T00:37:41.039Z,1.3
2023-04-24T00:38:50.715Z,1.2
2023-04-24T00:39:59.353Z,1.3
2023-04-24T00:41:09.083Z,1.8
2023-04-24T00:42:18.793Z,1.1
2023-04-24T00:43:27.452Z,1.3
2023-04-24T00:44:37.110Z,1.7
2023-04-24T00:45:46.844Z,1.9
2023-04-24T00:46:54.464Z,1.1
2023-04-24T00:48:04.202Z,1.5
2023-04-24T00:49:13.828Z,1.8
2023-04-24T00:50:22.538Z,1.9
2023-04-24T00:51:32.137Z,1.3
2023-04-24T00:52:39.864Z,1.3
2023-04-24T00:53:48.570Z,1.7
2023-04-24T00:54:58.306Z,1.4
2023-04-24T00:56:06.991Z,0.8
2023-04-24T00:57:16.675Z,1
2023-04-24T00:58:25.351Z,1
2023-04-24T00:59:34.008Z,0.8
2023-04-24T01:00:43.647Z,0.9
2023-04-24T01:01:52.392Z,0.7
2023-04-24T01:03:01.164Z,0.6
2023-04-24T01:04:10.778Z,0.5
2023-04-24T01:05:20.324Z,0.7
2023-04-24T01:06:30.015Z,0.4
2023-04-24T01:07:38.677Z,0.7
2023-04-24T01:08:46.365Z,0.7
2023-04-24T01:09:56.012Z,0.4
2023-04-24T01:11:05.682Z,0.9
2023-04-24T01:12:14.347Z,0.7
2023-04-24T01:13:24.024Z,0.6
2023-04-24T01:14:32.810Z,0.7
2023-04-24T01:15:42.367Z,0.8
2023-04-24T01:16:51.021Z,0.8
2023-04-24T01:17:59.692Z,0.8
2023-04-24T01:19:09.352Z,0.6
2023-04-24T01:20:18.037Z,0.4
2023-04-24T01:21:26.755Z,0.7
2023-04-24T01:22:36.425Z,0.6
2023-04-24T01:23:45.076Z,0.5
2023-04-24T01:24:54.773Z,0.4
2023-04-24T01:26:04.442Z,0.5
2023-04-24T01:27:13.143Z,0.4
2023-04-24T01:28:22.806Z,0.4
2023-04-24T01:29:32.422Z,0.5
2023-04-24T01:30:41.064Z,0.5
2023-04-24T01:31:50.836Z,0.5
2023-04-24T01:33:00.438Z,0.5
2023-04-24T01:34:08.041Z,0.5
2023-04-24T01:35:17.682Z,0.4
2023-04-24T01:36:27.152Z,0.4
2023-04-24T01:37:36.095Z,0.5
2023-04-24T01:38:45.740Z,0.4
2023-04-24T01:39:53.374Z,0.4
2023-04-24T01:41:03.021Z,0.3
2023-04-24T01:42:11.674Z,0.4
2023-04-24T01:43:19.348Z,0.4
2023-04-24T01:44:28.974Z,0.4
2023-04-24T01:45:37.642Z,0.3
2023-04-24T01:46:45.308Z,0.5
2023-04-24T01:47:55.073Z,0.5
2023-04-24T01:49:03.713Z,0.4
2023-04-24T01:50:13.385Z,0.4
2023-04-24T01:51:23.054Z,0.4
2023-04-24T01:52:31.789Z,0.4
2023-04-24T01:53:41.433Z,0.5
2023-04-24T01:54:49.066Z,0.4
2023-04-24T01:55:58.735Z,0.4
2023-04-24T01:57:08.394Z,0.4
2023-04-24T01:58:17.039Z,0.4
2023-04-24T01:59:26.684Z,0.7
2023-04-24T02:00:35.338Z,0.8
2023-04-24T02:01:44.005Z,1.9
2023-04-24T02:02:53.781Z,2.2
2023-04-24T02:04:01.350Z,3.2
2023-04-24T02:05:10.936Z,2.9
2023-04-24T02:06:20.613Z,2.3
2023-04-24T02:07:28.259Z,1.6
2023-04-24T02:08:37.929Z,0.7
2023-04-24T02:09:46.563Z,0.6
2023-04-24T02:10:55.258Z,0.6
2023-04-24T02:12:04.877Z,0.6
2023-04-24T02:13:13.550Z,0.8
2023-04-24T02:14:23.207Z,0.7
2023-04-24T02:15:32.874Z,0.6
2023-04-24T02:16:40.610Z,0.7
2023-04-24T02:17:50.223Z,0.7
2023-04-24T02:18:59.836Z,0.6
2023-04-24T02:20:07.517Z,0.6
2023-04-24T02:21:17.165Z,0.6
2023-04-24T02:22:26.803Z,0.7
2023-04-24T02:23:35.602Z,0.8
2023-04-24T02:24:45.270Z,0.8
2023-04-24T02:25:52.874Z,0.7
2023-04-24T02:27:02.544Z,0.6
2023-04-24T02:28:11.210Z,0.7
2023-04-24T02:29:18.856Z,0.8
2023-04-24T02:30:29.513Z,0.8
2023-04-24T02:31:38.199Z,0.4
2023-04-24T02:32:45.832Z,0.5
2023-04-24T02:33:55.486Z,0.3
2023-04-24T02:35:03.164Z,0.5
2023-04-24T02:36:12.753Z,0.5
2023-04-24T02:37:21.393Z,0.6
2023-04-24T02:38:30.093Z,0.4
2023-04-24T02:39:39.807Z,0.6
2023-04-24T02:40:48.413Z,0.6
2023-04-24T02:41:57.030Z,0.6
2023-04-24T02:43:06.686Z,0.3
2023-04-24T02:44:14.317Z,0.4
2023-04-24T02:45:23.972Z,0.6
2023-04-24T02:46:32.604Z,0.7
2023-04-24T02:47:41.349Z,0.6
2023-04-24T02:48:50.977Z,0.5
2023-04-24T02:49:58.629Z,0.6
2023-04-24T02:51:07.279Z,0.5
2023-04-24T02:52:16.923Z,0.5
2023-04-24T02:53:26.778Z,0.5
2023-04-24T02:54:36.431Z,0.8
2023-04-24T02:55:46.066Z,0.7
2023-04-24T02:56:54.768Z,0.4
2023-04-24T02:58:04.430Z,0.6
2023-04-24T02:59:12.069Z,0.4
2023-04-24T03:00:20.719Z,0.5
2023-04-24T03:01:30.424Z,0.6
2023-04-24T03:02:39.119Z,0.5
2023-04-24T03:03:48.919Z,0.5
2023-04-24T03:04:58.389Z,0.4
2023-04-24T03:06:07.024Z,0.4
2023-04-24T03:07:16.688Z,0.4
2023-04-24T03:08:24.346Z,0.4
2023-04-24T03:09:33.006Z,0.3
2023-04-24T03:10:42.644Z,0.4
2023-04-24T03:11:51.282Z,0.4
2023-04-24T03:13:01.000Z,0.4
2023-04-24T03:14:10.612Z,0.4
2023-04-24T03:15:18.243Z,0.4
2023-04-24T03:16:27.904Z,0.3
2023-04-24T03:17:36.568Z,0.4
2023-04-24T03:18:46.338Z,0.4
2023-04-24T03:19:55.984Z,0.3
2023-04-24T03:21:05.629Z,0.4
2023-04-24T03:22:15.273Z,0.4
2023-04-24T03:23:24.957Z,0.3
2023-04-24T03:24:32.581Z,0.3
2023-04-24T03:25:42.235Z,0.3
2023-04-24T03:26:51.892Z,0.3
2023-04-24T03:27:59.585Z,0.3
2023-04-24T03:29:08.240Z,0.4
2023-04-24T03:30:16.886Z,0.3
2023-04-24T03:31:26.576Z,0.5
2023-04-24T03:32:36.272Z,0.4
2023-04-24T03:33:44.912Z,0.4
2023-04-24T03:34:52.553Z,0.4
2023-04-24T03:36:02.194Z,0.3
2023-04-24T03:37:10.854Z,0.3
2023-04-24T03:38:20.556Z,0.4
2023-04-24T03:39:30.220Z,0.4
2023-04-24T03:40:38.863Z,0.4
2023-04-24T03:41:48.506Z,0.4
2023-04-24T03:42:57.159Z,0.4
2023-04-24T03:44:07.119Z,0.4
2023-04-24T03:45:16.796Z,0.4
2023-04-24T03:46:24.428Z,0.6
2023-04-24T03:47:34.162Z,0.4
2023-04-24T03:48:43.724Z,0.5
2023-04-24T03:49:51.350Z,0.6
2023-04-24T03:51:01.003Z,0.5
2023-04-24T03:52:09.647Z,0.4
2023-04-24T03:53:18.307Z,0.5
2023-04-24T03:54:27.951Z,0.5
2023-04-24T03:55:35.615Z,0.4
2023-04-24T03:56:45.273Z,0.7
2023-04-24T03:57:54.913Z,0.5
2023-04-24T03:59:03.617Z,0.8
2023-04-24T04:00:13.274Z,0.9
2023-04-24T04:01:22.917Z,0.7
2023-04-24T04:02:32.666Z,0.8
2023-04-24T04:03:42.279Z,0.9
2023-04-24T04:04:50.880Z,0.6
2023-04-24T04:06:00.489Z,0.7
2023-04-24T04:07:09.116Z,0.7
2023-04-24T04:08:18.810Z,0.6
2023-04-24T04:09:28.457Z,0.6
2023-04-24T04:10:35.104Z,0.6
2023-04-24T04:11:44.777Z,0.5
2023-04-24T04:12:54.415Z,0.5
2023-04-24T04:14:04.101Z,0.5
2023-04-24T04:15:13.746Z,0.5
2023-04-24T04:16:22.437Z,0.8
2023-04-24T04:17:32.129Z,0.8
2023-04-24T04:18:40.821Z,0.7
2023-04-24T04:19:49.535Z,0.6
2023-04-24T04:20:58.201Z,0.5
2023-04-24T04:22:07.882Z,0.6
2023-04-24T04:23:15.517Z,0.7
2023-04-24T04:24:25.345Z,0.5
2023-04-24T04:25:34.892Z,0.6
2023-04-24T04:26:44.555Z,0.4
2023-04-24T04:27:54.204Z,0.7
2023-04-24T04:29:02.902Z,0.6
2023-04-24T04:30:11.553Z,0.5
2023-04-24T04:31:21.246Z,0.6
2023-04-24T04:32:29.863Z,0.4
2023-04-24T04:33:39.578Z,0.3
2023-04-24T04:34:48.216Z,0.3
2023-04-24T04:35:56.851Z,0.3
2023-04-24T04:37:07.494Z,0.3
2023-04-24T04:38:15.156Z,0.4
2023-04-24T04:39:23.813Z,0.3
2023-04-24T04:40:33.464Z,0.4
2023-04-24T04:41:43.107Z,0.4
2023-04-24T04:42:52.760Z,0.3
2023-04-24T04:44:02.422Z,0.3
2023-04-24T04:45:10.061Z,0.3
2023-04-24T04:46:18.836Z,0.3
2023-04-24T04:47:28.382Z,0.3
2023-04-24T04:48:37.006Z,0.2
2023-04-24T04:49:46.706Z,0.3
2023-04-24T04:50:54.318Z,0.3
2023-04-24T04:52:03.991Z,0.3
2023-04-24T04:53:12.622Z,0.3
2023-04-24T04:54:20.269Z,0.3
2023-04-24T04:55:29.966Z,0.2
2023-04-24T04:56:37.587Z,0.3
2023-04-24T04:57:47.231Z,0.3
2023-04-24T04:58:56.952Z,0.4
2023-04-24T05:00:05.599Z,0.3
2023-04-24T05:01:15.250Z,0.3
2023-04-24T05:02:24.954Z,0.3
2023-04-24T05:03:32.678Z,0.4
2023-04-24T05:04:42.376Z,0.3
2023-04-24T05:05:51.872Z,0.3
2023-04-24T05:07:01.500Z,0.3
2023-04-24T05:08:20.087Z,0.3
2023-04-24T05:09:19.788Z,0.3
2023-04-24T05:10:28.436Z,0.3
2023-04-24T05:11:36.058Z,0.3
2023-04-24T05:12:46.408Z,0.4
2023-04-24T05:13:55.364Z,0.3
2023-04-24T05:15:03.106Z,0.4
2023-04-24T05:16:11.655Z,0.3
2023-04-24T05:17:21.332Z,0.3
2023-04-24T05:18:29.992Z,0.3
2023-04-24T05:19:39.657Z,0.4
2023-04-24T05:20:48.287Z,0.4
2023-04-24T05:21:57.005Z,0.4
2023-04-24T05:23:05.594Z,0.3
2023-04-24T05:24:15.252Z,0.4
2023-04-24T05:25:22.892Z,0.4
2023-04-24T05:26:32.529Z,0.4
2023-04-24T05:27:41.170Z,0.3
2023-04-24T05:28:48.842Z,0.4
2023-04-24T05:29:57.560Z,0.3
2023-04-24T05:31:07.253Z,0.3
2023-04-24T05:32:15.900Z,0.5
2023-04-24T05:33:25.563Z,0.3
2023-04-24T05:34:34.248Z,0.4
2023-04-24T05:35:43.888Z,0.4
2023-04-24T05:36:52.616Z,0.4
2023-04-24T05:38:01.431Z,0.4
2023-04-24T05:39:10.961Z,0.4
2023-04-24T05:40:18.612Z,0.4
2023-04-24T05:41:27.241Z,0.5
2023-04-24T05:42:36.949Z,0.4
2023-04-24T05:43:45.600Z,0.4
2023-04-24T05:44:56.688Z,0.4
2023-04-24T05:46:03.968Z,0.4
2023-04-24T05:47:12.591Z,0.5
2023-04-24T05:48:22.233Z,0.4
2023-04-24T05:49:31.904Z,0.4
2023-04-24T05:50:40.570Z,0.5
2023-04-24T05:51:50.211Z,0.5
2023-04-24T05:52:58.858Z,0.6
2023-04-24T05:54:08.544Z,0.7
2023-04-24T05:55:17.180Z,1
2023-04-24T05:56:24.814Z,0.7
2023-04-24T05:57:34.445Z,0.6
2023-04-24T05:58:42.094Z,0.7
2023-04-24T05:59:50.795Z,0.6
2023-04-24T06:01:00.454Z,0.8
2023-04-24T06:02:08.203Z,0.7
2023-04-24T06:03:17.884Z,0.9
2023-04-24T06:04:27.507Z,0.9
2023-04-24T06:05:35.062Z,0.9
2023-04-24T06:06:44.721Z,0.9
2023-04-24T06:07:53.403Z,0.8
2023-04-24T06:09:02.082Z,0.7
2023-04-24T06:10:11.844Z,0.9
2023-04-24T06:11:19.465Z,1.3
2023-04-24T06:12:29.122Z,1
2023-04-24T06:13:38.770Z,0.9
2023-04-24T06:14:47.445Z,1
2023-04-24T06:15:57.152Z,1.2
2023-04-24T06:17:04.789Z,0.9
2023-04-24T06:18:14.433Z,1
2023-04-24T06:19:24.067Z,0.8
2023-04-24T06:20:31.716Z,0.8
2023-04-24T06:21:41.379Z,0.6
2023-04-24T06:22:50.010Z,0.6
2023-04-24T06:23:57.659Z,0.6
2023-04-24T06:25:07.318Z,0.6
2023-04-24T06:26:15.995Z,0.6
2023-04-24T06:27:25.614Z,0.4
2023-04-24T06:28:35.285Z,0.3
2023-04-24T06:29:45.102Z,0.3
2023-04-24T06:30:54.601Z,0.4
2023-04-24T06:32:03.296Z,0.4
2023-04-24T06:33:19.840Z,0.4
2023-04-24T06:34:23.529Z,0.4
2023-04-24T06:35:33.197Z,0.4
2023-04-24T06:36:41.836Z,0.4
2023-04-24T06:37:51.495Z,0.6
2023-04-24T06:38:59.175Z,0.4
2023-04-24T06:40:08.901Z,0.4
2023-04-24T06:41:18.531Z,0.5
2023-04-24T06:42:28.250Z,0.4
2023-04-24T06:43:37.866Z,0.4
2023-04-24T06:44:47.523Z,0.4
2023-04-24T06:45:56.192Z,0.3
2023-04-24T06:47:05.823Z,0.4
2023-04-24T06:48:13.485Z,0.5
2023-04-24T06:49:23.165Z,0.4
2023-04-24T06:50:32.830Z,0.6
2023-04-24T06:51:41.475Z,0.4
2023-04-24T06:52:51.109Z,0.5
2023-04-24T06:54:00.754Z,0.4
2023-04-24T06:55:10.523Z,0.4
2023-04-24T06:56:19.168Z,0.3
2023-04-24T06:57:26.817Z,0.3
2023-04-24T06:58:36.480Z,0.3
2023-04-24T06:59:45.234Z,0.3
2023-04-24T07:00:53.836Z,0.3
2023-04-24T07:02:03.470Z,0.3
2023-04-24T07:03:11.245Z,0.2
2023-04-24T07:04:19.847Z,0.3
2023-04-24T07:05:29.483Z,0.4
2023-04-24T07:06:37.110Z,0.5
2023-04-24T07:07:46.764Z,0.4
2023-04-24T07:08:56.446Z,0.3
2023-04-24T07:10:05.147Z,0.2
2023-04-24T07:11:14.792Z,0.2
2023-04-24T07:12:22.443Z,0.3
2023-04-24T07:13:31.105Z,0.4
2023-04-24T07:14:40.793Z,0.3
2023-04-24T07:15:49.433Z,0.4
2023-04-24T07:16:59.093Z,0.3
2023-04-24T07:18:07.821Z,0.6
2023-04-24T07:19:17.370Z,0.4
2023-04-24T07:20:26.045Z,0.5
2023-04-24T07:21:35.692Z,0.4
2023-04-24T07:22:44.341Z,0.3
2023-04-24T07:23:53.995Z,0.3
2023-04-24T07:25:03.692Z,0.2
2023-04-24T07:26:12.327Z,0.3
2023-04-24T07:27:21.999Z,0.3
2023-04-24T07:28:29.654Z,0.2
2023-04-24T07:29:38.296Z,0.3
2023-04-24T07:30:48.032Z,0.4
2023-04-24T07:31:57.782Z,0.3
2023-04-24T07:33:08.372Z,0.3
2023-04-24T07:34:17.971Z,0.3
2023-04-24T07:35:27.640Z,0.6
2023-04-24T07:36:37.281Z,0.5
2023-04-24T07:37:45.933Z,0.3
2023-04-24T07:38:54.568Z,0.3
2023-04-24T07:40:04.230Z,0.2
2023-04-24T07:41:12.864Z,0.3
2023-04-24T07:42:22.560Z,0.3
2023-04-24T07:43:31.194Z,0.3
2023-04-24T07:44:39.866Z,0.4
2023-04-24T07:45:49.679Z,0.4
2023-04-24T07:46:58.263Z,0.3
2023-04-24T07:48:06.973Z,0.3
2023-04-24T07:49:18.476Z,0.3
2023-04-24T07:50:25.244Z,0.2
2023-04-24T07:51:33.916Z,0.3
2023-04-24T07:52:42.632Z,0.2
2023-04-24T07:53:50.268Z,0.2
2023-04-24T07:54:58.929Z,0.2
2023-04-24T07:56:08.639Z,0.2
2023-04-24T07:57:17.296Z,0.2
2023-04-24T07:58:26.971Z,0.4
2023-04-24T07:59:35.667Z,0.5
2023-04-24T08:00:45.342Z,0.7
2023-04-24T08:01:53.997Z,0.7
2023-04-24T08:03:03.752Z,0.5
2023-04-24T08:04:13.407Z,0.5
2023-04-24T08:05:22.092Z,0.4
2023-04-24T08:06:30.662Z,0.4
2023-04-24T08:07:40.353Z,0.5
2023-04-24T08:08:48.992Z,0.4
2023-04-24T08:09:58.677Z,0.4
2023-04-24T08:11:08.373Z,0.3
2023-04-24T08:12:17.099Z,0.4
2023-04-24T08:13:26.775Z,0.4
2023-04-24T08:14:35.415Z,0.3
2023-04-24T08:15:45.144Z,0.3
2023-04-24T08:16:54.804Z,0.3
2023-04-24T08:18:03.459Z,0.5
2023-04-24T08:19:13.122Z,0.4
2023-04-24T08:20:24.525Z,0.6
2023-04-24T08:21:33.191Z,0.7
2023-04-24T08:22:42.868Z,0.9
2023-04-24T08:23:50.510Z,1
2023-04-24T08:24:59.179Z,0.9
2023-04-24T08:26:09.466Z,0.5
2023-04-24T08:27:18.125Z,0.5
2023-04-24T08:28:27.809Z,0.5
2023-04-24T08:29:37.459Z,0.5
2023-04-24T08:30:46.152Z,0.5
2023-04-24T08:31:55.816Z,0.6
2023-04-24T08:33:03.496Z,1.3
2023-04-24T08:34:11.122Z,1
2023-04-24T08:35:20.843Z,1.5
2023-04-24T08:36:36.343Z,0.4
2023-04-24T08:37:41.186Z,0.3
2023-04-24T08:38:50.903Z,0.3
2023-04-24T08:39:59.615Z,0.3
2023-04-24T08:41:09.265Z,0.3
2023-04-24T08:42:15.930Z,0.5
2023-04-24T08:43:25.146Z,0.3
2023-04-24T08:44:34.823Z,0.2
2023-04-24T08:45:43.551Z,1
2023-04-24T08:46:53.263Z,0.4
2023-04-24T08:48:02.873Z,0.4
2023-04-24T08:49:11.533Z,0.4
2023-04-24T08:50:21.199Z,0.2
2023-04-24T08:51:29.985Z,0.2
2023-04-24T08:52:39.548Z,0.2
2023-04-24T08:53:49.231Z,0.8
2023-04-24T08:54:56.930Z,1.6
2023-04-24T08:56:06.601Z,0.4
2023-04-24T08:57:16.290Z,0.4
2023-04-24T08:58:23.927Z,0.4
2023-04-24T08:59:33.598Z,0.5
2023-04-24T09:00:41.270Z,0.7
2023-04-24T09:01:50.085Z,0.7
2023-04-24T09:02:59.653Z,0.8
2023-04-24T09:04:07.335Z,0.6
2023-04-24T09:05:16.976Z,0.7
2023-04-24T09:06:25.583Z,0.7
2023-04-24T09:07:35.310Z,0.8
2023-04-24T09:08:44.934Z,0.8
2023-04-24T09:09:52.575Z,0.9
2023-04-24T09:11:02.331Z,1
2023-04-24T09:12:11.990Z,1
2023-04-24T09:13:19.640Z,1.3
2023-04-24T09:14:29.298Z,1.2
2023-04-24T09:15:37.976Z,1.1
2023-04-24T09:16:47.669Z,1
2023-04-24T09:17:56.337Z,1.1
2023-04-24T09:19:05.965Z,1.1
2023-04-24T09:20:14.628Z,1.2
2023-04-24T09:21:24.318Z,1
2023-04-24T09:22:32.979Z,1.2
2023-04-24T09:23:41.682Z,1.3
2023-04-24T09:24:51.334Z,0.9
2023-04-24T09:25:59.993Z,1
2023-04-24T09:27:11.233Z,1.2
2023-04-24T09:28:19.405Z,0.7
2023-04-24T09:29:29.077Z,0.9
2023-04-24T09:30:38.792Z,0.8
2023-04-24T09:31:47.514Z,0.7
2023-04-24T09:32:56.090Z,0.6
2023-04-24T09:34:07.275Z,0.6
2023-04-24T09:35:16.354Z,0.6
2023-04-24T09:36:24.021Z,0.6
2023-04-24T09:37:33.694Z,2.5
2023-04-24T09:38:42.329Z,3.1
2023-04-24T09:39:52.092Z,1.7
2023-04-24T09:41:00.750Z,0.6
2023-04-24T09:42:09.419Z,0.5
2023-04-24T09:43:19.057Z,0.7
2023-04-24T09:44:27.759Z,0.4
2023-04-24T09:45:37.399Z,0.4
2023-04-24T09:46:46.128Z,0.3
2023-04-24T09:47:55.781Z,0.5
2023-04-24T09:49:05.421Z,0.7
2023-04-24T09:50:15.086Z,0.5
2023-04-24T09:51:22.770Z,0.4
2023-04-24T09:52:32.433Z,0.6
2023-04-24T09:53:41.090Z,0.8
2023-04-24T09:54:49.749Z,1.1
2023-04-24T09:55:59.428Z,1
2023-04-24T09:57:07.101Z,0.5
2023-04-24T09:58:16.781Z,0.3
2023-04-24T09:59:25.459Z,0.4
2023-04-24T10:00:33.145Z,0.3
2023-04-24T10:01:42.914Z,0.4
2023-04-24T10:02:51.633Z,0.5
2023-04-24T10:04:01.206Z,0.3
2023-04-24T10:05:10.874Z,0.4
2023-04-24T10:06:19.534Z,0.4
2023-04-24T10:07:29.192Z,0.6
2023-04-24T10:08:37.845Z,0.4
2023-04-24T10:09:46.489Z,0.7
2023-04-24T10:10:56.150Z,0.5
2023-04-24T10:12:04.861Z,0.5
2023-04-24T10:13:13.508Z,0.3
2023-04-24T10:14:23.149Z,0.3
2023-04-24T10:15:31.811Z,0.3
2023-04-24T10:16:41.535Z,0.4
2023-04-24T10:17:52.190Z,0.4
2023-04-24T10:19:01.849Z,0.3
2023-04-24T10:20:11.566Z,0.5
2023-04-24T10:21:20.223Z,0.3
2023-04-24T10:22:28.914Z,0.4
2023-04-24T10:23:38.594Z,0.4
2023-04-24T10:24:47.265Z,0.4
2023-04-24T10:25:56.981Z,0.3
2023-04-24T10:27:06.998Z,0.5
2023-04-24T10:28:15.626Z,0.5
2023-04-24T10:29:25.285Z,0.6
2023-04-24T10:30:33.984Z,0.6
2023-04-24T10:31:42.746Z,0.7
2023-04-24T10:32:52.347Z,0.6
2023-04-24T10:33:59.978Z,0.8
2023-04-24T10:35:09.631Z,0.7
2023-04-24T10:36:18.732Z,0.5
2023-04-24T10:37:28.372Z,0.4
2023-04-24T10:38:38.019Z,0.3
2023-04-24T10:39:46.684Z,0.4
2023-04-24T10:40:55.329Z,0.3
2023-04-24T10:42:05.065Z,0.2
2023-04-24T10:43:12.835Z,0.3
2023-04-24T10:44:22.457Z,0.2
2023-04-24T10:45:31.094Z,0.2
2023-04-24T10:46:38.783Z,0.3
2023-04-24T10:47:48.448Z,0.3
2023-04-24T10:48:56.095Z,0.3
2023-04-24T10:50:05.742Z,0.2
2023-04-24T10:51:15.389Z,0.3
2023-04-24T10:52:23.097Z,0.4
2023-04-24T10:53:32.783Z,0.3
2023-04-24T10:54:42.487Z,0.5
2023-04-24T10:55:51.120Z,0.6
2023-04-24T10:57:00.812Z,0.6
2023-04-24T10:58:09.538Z,0.4
2023-04-24T10:59:19.182Z,0.6
2023-04-24T11:00:28.815Z,0.5
2023-04-24T11:01:37.459Z,0.8
2023-04-24T11:02:47.197Z,0.5
2023-04-24T11:03:55.903Z,0.3
2023-04-24T11:05:05.533Z,0.3
2023-04-24T11:06:15.183Z,0.8
2023-04-24T11:07:24.889Z,0.5
2023-04-24T11:08:33.545Z,0.5
2023-04-24T11:09:43.265Z,0.9
2023-04-24T11:10:53.098Z,1.2
2023-04-24T11:12:01.851Z,0.9
2023-04-24T11:13:11.634Z,0.5
2023-04-24T11:14:20.112Z,0.5
2023-04-24T11:15:29.810Z,0.3
2023-04-24T11:16:39.629Z,0.5
2023-04-24T11:17:47.183Z,0.4
2023-04-24T11:18:56.828Z,0.3
2023-04-24T11:20:15.792Z,0.3
2023-04-24T11:21:16.188Z,0.2
2023-04-24T11:22:25.922Z,0.2
2023-04-24T11:23:33.579Z,0.2
2023-04-24T11:24:42.240Z,0.2
2023-04-24T11:25:51.931Z,0.2
2023-04-24T11:26:59.578Z,0.4
2023-04-24T11:28:09.257Z,0.7
2023-04-24T11:29:19.190Z,0.5
2023-04-24T11:30:28.570Z,0.3
2023-04-24T11:31:38.320Z,0.7
2023-04-24T11:32:47.934Z,1
2023-04-24T11:33:56.693Z,1
2023-04-24T11:35:06.354Z,0.8
2023-04-24T11:36:14.013Z,0.6
2023-04-24T11:37:23.713Z,0.3
2023-04-24T11:38:33.380Z,0.4
2023-04-24T11:39:41.061Z,0.5
2023-04-24T11:40:50.741Z,0.4
2023-04-24T11:41:58.386Z,0.6
2023-04-24T11:43:08.358Z,0.3
2023-04-24T11:44:17.723Z,0.2
2023-04-24T11:45:26.415Z,0.3
2023-04-24T11:46:36.118Z,0.3
2023-04-24T11:47:44.828Z,0.4
2023-04-24T11:48:53.380Z,0.4
2023-04-24T11:50:03.197Z,0.2
2023-04-24T11:51:12.733Z,0.2
2023-04-24T11:52:22.380Z,0.3
2023-04-24T11:53:32.069Z,0.4
2023-04-24T11:54:40.774Z,0.3
2023-04-24T11:55:50.428Z,0.4
2023-04-24T11:56:59.116Z,0.4
2023-04-24T11:58:06.767Z,0.4
2023-04-24T11:59:16.426Z,0.6
2023-04-24T12:00:24.076Z,0.6
2023-04-24T12:01:32.714Z,0.6
2023-04-24T12:02:42.490Z,0.7
2023-04-24T12:03:52.235Z,0.7
2023-04-24T12:05:02.118Z,0.6
2023-04-24T12:06:10.387Z,0.6
2023-04-24T12:07:18.019Z,0.7
2023-04-24T12:08:27.706Z,0.7
2023-04-24T12:09:36.353Z,1
2023-04-24T12:10:45.028Z,0.4
2023-04-24T12:11:54.699Z,0.3
2023-04-24T12:13:04.445Z,0.3
2023-04-24T12:14:14.087Z,0.3
2023-04-24T12:15:23.730Z,0.4
2023-04-24T12:16:33.389Z,0.3
2023-04-24T12:17:43.133Z,0.3
2023-04-24T12:18:51.010Z,0.5
2023-04-24T12:20:00.787Z,0.7
2023-04-24T12:21:10.462Z,0.7
2023-04-24T12:22:18.089Z,0.5
2023-04-24T12:23:27.824Z,0.2
2023-04-24T12:24:36.453Z,0.2
2023-04-24T12:25:45.127Z,0.4
2023-04-24T12:26:54.769Z,0.5
2023-04-24T12:28:03.448Z,0.9
2023-04-24T12:29:13.101Z,0.6
2023-04-24T12:30:22.767Z,0.4
2023-04-24T12:31:31.499Z,0.5
2023-04-24T12:32:41.080Z,0.4
2023-04-24T12:33:49.748Z,0.4
2023-04-24T12:34:58.392Z,0.4
2023-04-24T12:36:08.058Z,0.3
2023-04-24T12:37:16.747Z,0.5
2023-04-24T12:38:25.413Z,0.5
2023-04-24T12:39:35.061Z,0.4
2023-04-24T12:40:42.730Z,0.2
2023-04-24T12:41:52.509Z,0.3
2023-04-24T12:43:02.118Z,0.2
2023-04-24T12:44:09.801Z,0.2
2023-04-24T12:45:19.451Z,0.2
2023-04-24T12:46:28.095Z,0.2
2023-04-24T12:47:37.724Z,0.2
2023-04-24T12:48:46.431Z,0.1
2023-04-24T12:49:54.040Z,0.2
2023-04-24T12:51:03.706Z,0.2
2023-04-24T12:52:12.391Z,0.3
2023-04-24T12:53:22.060Z,0.3
2023-04-24T12:54:31.730Z,0.3
2023-04-24T12:55:40.342Z,0.1
2023-04-24T12:56:49.997Z,0.1
2023-04-24T12:57:57.679Z,0.2
2023-04-24T12:59:06.331Z,0.1
2023-04-24T13:00:17.569Z,0.1
2023-04-24T13:01:24.743Z,0.1
2023-04-24T13:02:32.476Z,0.2
2023-04-24T13:03:42.308Z,0.2
2023-04-24T13:04:51.674Z,0.2
2023-04-24T13:06:00.348Z,0.3
2023-04-24T13:07:09.990Z,0.2
2023-04-24T13:08:19.679Z,0.2
2023-04-24T13:09:29.320Z,0.5
2023-04-24T13:10:39.062Z,0.4
2023-04-24T13:11:47.714Z,0.3
2023-04-24T13:12:56.458Z,0.2
2023-04-24T13:14:06.113Z,0.1
2023-04-24T13:15:14.820Z,0.5
2023-04-24T13:16:24.491Z,0.1
2023-04-24T13:17:33.131Z,0.2
2023-04-24T13:18:41.765Z,0.2
2023-04-24T13:19:51.565Z,0.1
2023-04-24T13:20:59.241Z,0
2023-04-24T13:22:08.869Z,0.1
2023-04-24T13:23:18.537Z,0.3
2023-04-24T13:24:28.247Z,0.2
2023-04-24T13:25:37.863Z,0.1
2023-04-24T13:26:46.499Z,0.2
2023-04-24T13:27:55.170Z,0.2
2023-04-24T13:29:04.874Z,0.1
2023-04-24T13:30:13.539Z,0.2
2023-04-24T13:31:23.189Z,0.4
2023-04-24T13:32:31.810Z,0.3
2023-04-24T13:33:40.568Z,0.3
2023-04-24T13:34:50.140Z,0.2
2023-04-24T13:35:59.784Z,0.4
2023-04-24T13:37:08.511Z,0.2
2023-04-24T13:38:18.146Z,0.3
2023-04-24T13:39:26.806Z,0.4
2023-04-24T13:40:36.502Z,0.2
2023-04-24T13:41:46.118Z,0.3
2023-04-24T13:42:55.776Z,0.3
2023-04-24T13:44:05.462Z,0.3
2023-04-24T13:45:24.530Z,0.3
2023-04-24T13:46:23.870Z,0.4
2023-04-24T13:47:33.464Z,0.7
2023-04-24T13:48:42.144Z,0.3
2023-04-24T13:49:51.866Z,0.2
2023-04-24T13:51:01.496Z,0.1
2023-04-24T13:52:10.148Z,0.3
2023-04-24T13:53:19.785Z,0.3
2023-04-24T13:54:29.461Z,0.2
2023-04-24T13:55:39.132Z,0.2
2023-04-24T13:56:48.775Z,0.3
2023-04-24T13:57:57.399Z,0.2
2023-04-24T13:59:06.036Z,0.5
2023-04-24T14:00:15.710Z,0.3
2023-04-24T14:01:23.364Z,0.3
2023-04-24T14:02:33.198Z,0.1
2023-04-24T14:03:41.846Z,0.3
2023-04-24T14:04:50.555Z,0.2
2023-04-24T14:05:59.968Z,0.3
2023-04-24T14:07:09.626Z,0.3
2023-04-24T14:08:18.288Z,0.6
2023-04-24T14:09:27.005Z,0.1
2023-04-24T14:10:34.648Z,0.2
2023-04-24T14:11:44.319Z,0.2
2023-04-24T14:12:52.939Z,0.4
2023-04-24T14:14:00.601Z,0.4
2023-04-24T14:15:10.262Z,0.5
2023-04-24T14:16:19.034Z,0.6
2023-04-24T14:17:28.613Z,0.4
2023-04-24T14:18:38.263Z,0.4
2023-04-24T14:19:45.944Z,0.4
2023-04-24T14:20:55.562Z,0.5
2023-04-24T14:22:04.193Z,0.6
2023-04-24T14:23:11.833Z,0.4
2023-04-24T14:24:21.514Z,0.5
2023-04-24T14:25:29.204Z,0.4
2023-04-24T14:26:37.904Z,0.6
2023-04-24T14:27:47.582Z,0.5
2023-04-24T14:29:03.894Z,0.5
2023-04-24T14:30:07.887Z,0.5
2023-04-24T14:31:16.561Z,0.4
2023-04-24T14:32:26.253Z,0.5
2023-04-24T14:33:35.875Z,0.4
2023-04-24T14:34:45.531Z,0.6
2023-04-24T14:35:54.174Z,0.5
2023-04-24T14:37:03.822Z,0.6
2023-04-24T14:38:12.476Z,1.6
2023-04-24T14:39:22.159Z,0.1
2023-04-24T14:40:52.688Z,0.4
2023-04-24T14:41:40.455Z,0.3
2023-04-24T14:42:50.075Z,0.2
2023-04-24T14:43:59.762Z,0.2
2023-04-24T14:45:08.410Z,0.2
2023-04-24T14:46:18.194Z,0.1
2023-04-24T14:47:26.745Z,0.2
2023-04-24T14:48:36.346Z,0.2
2023-04-24T14:49:45.015Z,0.3
2023-04-24T14:50:54.676Z,0.1
2023-04-24T14:52:04.323Z,0.1
2023-04-24T14:53:11.975Z,0
2023-04-24T14:54:20.656Z,0.2
2023-04-24T14:55:30.337Z,0.1
2023-04-24T14:56:40.066Z,0.3
2023-04-24T14:57:49.736Z,0.1
2023-04-24T14:58:59.374Z,0.2
2023-04-24T15:00:08.069Z,0.2
2023-04-24T15:01:17.992Z,0.3
2023-04-24T15:02:27.641Z,0.1
2023-04-24T15:03:36.301Z,0.1
2023-04-24T15:04:45.867Z,0.2
2023-04-24T15:05:54.517Z,0.2
2023-04-24T15:07:04.110Z,0.3
2023-04-24T15:08:11.738Z,0.3
2023-04-24T15:09:19.401Z,0.2
2023-04-24T15:10:29.060Z,0.5
2023-04-24T15:11:38.696Z,0.2
2023-04-24T15:12:47.357Z,0.2
2023-04-24T15:13:57.040Z,0.2
2023-04-24T15:15:06.725Z,0.2
2023-04-24T15:16:15.519Z,0.2
2023-04-24T15:17:25.151Z,0.3
2023-04-24T15:18:33.731Z,0.3
2023-04-24T15:19:42.390Z,0.2
2023-04-24T15:20:52.055Z,0.1
2023-04-24T15:21:59.770Z,0.1
2023-04-24T15:23:09.500Z,0.3
2023-04-24T15:24:18.181Z,0.4
2023-04-24T15:25:25.880Z,0.3
2023-04-24T15:26:35.561Z,0.2
2023-04-24T15:27:45.249Z,0.3
2023-04-24T15:28:53.889Z,0.4
2023-04-24T15:30:03.534Z,0.4
2023-04-24T15:31:12.245Z,0.3
2023-04-24T15:32:22.052Z,0.3
2023-04-24T15:33:30.593Z,0.2
2023-04-24T15:34:40.246Z,0.2
2023-04-24T15:35:49.911Z,0.4
2023-04-24T15:36:57.621Z,0.4
2023-04-24T15:38:06.286Z,0.4
2023-04-24T15:39:15.958Z,0.9
2023-04-24T15:40:24.671Z,0.7
2023-04-24T15:41:34.330Z,0.3
2023-04-24T15:42:43.001Z,0.2
2023-04-24T15:43:51.651Z,0.3
2023-04-24T15:45:01.357Z,0.4
2023-04-24T15:46:10.032Z,0.3
2023-04-24T15:47:18.729Z,0.3
2023-04-24T15:48:28.394Z,0.4
2023-04-24T15:49:36.033Z,0.4
2023-04-24T15:50:45.714Z,0.6
2023-04-24T15:51:54.385Z,0.9
2023-04-24T15:53:02.033Z,0.9